Time;durP1;ratioP1;P1;durP2;ratioP2;P2;SDS_P1;SDS_P2;PMS_P1;PMS_P2;Temp;Humidity;BMP_temperature;BMP_pressure;BME280_temperature;BME280_humidity;BME280_pressure;Samples;Min_cycle;Max_cycle;Signal;HPM_P1;HPM_P2
2022/04/12 00:00:29;;;;;;;7.45;4.28;;;11.00;97.90;;;;;;5093537;28;20044;-44
2022/04/12 00:02:54;;;;;;;9.68;3.83;;;11.00;98.00;;;;;;5093506;28;20021;-41
2022/04/12 00:05:20;;;;;;;9.57;4.22;;;11.00;98.00;;;;;;5094244;28;20012;-36
2022/04/12 00:07:46;;;;;;;11.00;5.70;;;11.00;98.00;;;;;;5094054;28;20055;-37
2022/04/12 00:10:13;;;;;;;7.03;3.80;;;11.00;98.00;;;;;;5093965;28;20119;-36
2022/04/12 00:12:39;;;;;;;10.65;4.50;;;11.00;97.90;;;;;;5091166;28;20519;-36
2022/04/12 00:15:06;;;;;;;8.52;4.63;;;11.00;97.90;;;;;;5093488;28;20056;-36
2022/04/12 00:20:16;;;;;;;7.20;4.85;;;11.00;97.80;;;;;;5094551;28;20054;-37
2022/04/12 00:22:42;;;;;;;10.80;4.53;;;11.00;97.80;;;;;;5092107;28;20458;-36
2022/04/12 00:25:09;;;;;;;7.80;4.28;;;11.00;97.90;;;;;;5093935;28;20085;-36
2022/04/12 00:27:40;;;;;;;6.57;4.00;;;11.00;97.80;;;;;;5092789;28;20028;-37
2022/04/12 00:30:12;;;;;;;12.15;4.10;;;11.10;97.60;;;;;;5093850;28;20553;-32
2022/04/12 00:32:38;;;;;;;6.57;3.80;;;11.10;97.70;;;;;;5080333;28;20031;-35
2022/04/12 00:35:04;;;;;;;7.70;4.03;;;11.10;97.70;;;;;;5094058;28;20028;-38
2022/04/12 00:37:29;;;;;;;6.95;4.35;;;11.20;97.40;;;;;;5092494;28;20101;-38
2022/04/12 00:39:55;;;;;;;6.22;3.30;;;11.20;97.30;;;;;;5092382;28;20020;-38
2022/04/12 00:42:21;;;;;;;6.10;3.47;;;11.30;97.30;;;;;;5093270;28;20484;-36
2022/04/12 00:44:47;;;;;;;10.98;3.78;;;11.30;97.20;;;;;;5093175;28;20028;-37
2022/04/12 00:47:14;;;;;;;9.80;4.70;;;11.40;97.00;;;;;;5093257;28;20032;-37
2022/04/12 00:49:40;;;;;;;7.45;4.00;;;11.50;97.00;;;;;;5093547;28;20020;-38
2022/04/12 00:52:11;;;;;;;6.30;3.97;;;11.40;96.90;;;;;;5093975;28;20036;-38
2022/04/12 00:54:38;;;;;;;6.05;3.45;;;11.40;97.00;;;;;;5092824;28;20107;-38
2022/04/12 00:57:05;;;;;;;4.47;3.42;;;11.50;97.00;;;;;;5092938;28;20020;-42
2022/04/12 00:59:35;;;;;;;6.22;3.28;;;11.50;97.10;;;;;;5091616;28;20369;-38
2022/04/12 01:02:06;;;;;;;6.82;3.38;;;11.40;97.00;;;;;;5093550;28;20491;-38
2022/04/12 01:04:33;;;;;;;6.25;3.58;;;11.50;97.20;;;;;;5092238;28;20468;-37
2022/04/12 01:06:59;;;;;;;7.25;3.58;;;11.40;97.00;;;;;;5080983;28;20031;-37
2022/04/12 01:09:26;;;;;;;5.93;3.38;;;11.50;96.90;;;;;;5078432;28;20073;-42
2022/04/12 01:11:53;;;;;;;5.35;3.22;;;11.40;97.00;;;;;;5091085;28;20115;-44
2022/04/12 01:14:19;;;;;;;9.13;3.22;;;11.50;97.10;;;;;;5092901;28;20471;-39
2022/04/12 01:16:44;;;;;;;7.68;3.53;;;11.40;97.20;;;;;;5092590;28;20099;-37
2022/04/12 01:19:10;;;;;;;7.93;3.55;;;11.40;97.30;;;;;;5093038;28;20392;-36
2022/04/12 01:21:46;;;;;;;5.05;3.20;;;11.30;97.40;;;;;;5091228;28;20093;-36
2022/04/12 01:24:13;;;;;;;6.93;3.17;;;11.30;97.30;;;;;;5092886;28;20020;-37
2022/04/12 01:26:40;;;;;;;5.65;3.63;;;11.30;97.40;;;;;;5091674;28;20032;-37
2022/04/12 01:29:05;;;;;;;5.57;3.55;;;11.30;97.40;;;;;;5091655;28;20494;-35
2022/04/12 01:31:34;;;;;;;5.55;2.92;;;11.30;97.40;;;;;;5092388;28;20024;-37
2022/04/12 01:33:59;;;;;;;4.60;3.00;;;11.20;97.60;;;;;;5092545;28;20028;-38
2022/04/12 01:36:25;;;;;;;7.22;3.47;;;11.20;97.80;;;;;;5092664;28;20020;-39
2022/04/12 01:38:50;;;;;;;6.57;3.28;;;11.20;97.70;;;;;;5091067;28;20379;-38
2022/04/12 01:41:16;;;;;;;9.48;3.58;;;11.20;97.70;;;;;;5081370;28;20115;-35
2022/04/12 01:43:42;;;;;;;3.47;3.00;;;11.20;97.80;;;;;;5092225;28;20425;-37
2022/04/12 01:46:08;;;;;;;5.57;3.33;;;11.20;97.90;;;;;;5093242;28;20016;-39
2022/04/12 01:48:33;;;;;;;4.13;2.72;;;11.20;97.90;;;;;;5092740;28;20535;-44
2022/04/12 01:50:59;;;;;;;3.38;2.80;;;11.10;97.90;;;;;;5091273;28;20016;-38
2022/04/12 01:53:24;;;;;;;7.25;3.40;;;11.10;97.90;;;;;;5092781;28;20467;-35
2022/04/12 01:55:50;;;;;;;11.73;3.97;;;11.10;97.90;;;;;;5092455;28;20069;-37
2022/04/12 01:58:15;;;;;;;7.50;3.55;;;11.10;98.00;;;;;;5092880;28;20536;-37
2022/04/12 02:00:42;;;;;;;5.35;2.95;;;11.10;98.10;;;;;;5091210;28;20024;-35
2022/04/12 02:03:09;;;;;;;5.97;3.38;;;11.00;98.10;;;;;;5092035;28;20032;-38
2022/04/12 02:05:34;;;;;;;8.60;3.00;;;11.00;98.20;;;;;;5091207;28;20078;-37
2022/04/12 02:08:00;;;;;;;6.53;4.35;;;11.00;98.20;;;;;;5092854;28;20028;-36
2022/04/12 02:10:26;;;;;;;4.90;2.72;;;11.00;98.30;;;;;;5088083;28;20517;-36
2022/04/12 02:12:51;;;;;;;5.45;3.03;;;11.00;98.30;;;;;;5092712;28;20016;-46
2022/04/12 02:15:17;;;;;;;5.80;3.10;;;11.00;98.20;;;;;;5090016;28;20364;-35
2022/04/12 02:17:43;;;;;;;3.20;2.60;;;11.00;98.30;;;;;;5092213;28;20020;-37
2022/04/12 02:20:09;;;;;;;5.57;3.05;;;11.00;98.20;;;;;;5092038;28;20523;-38
2022/04/12 02:22:35;;;;;;;9.65;4.05;;;10.90;98.20;;;;;;5092941;28;20066;-38
2022/04/12 02:25:02;;;;;;;6.72;3.95;;;10.90;98.30;;;;;;5091460;28;20478;-38
2022/04/12 02:27:27;;;;;;;7.53;3.28;;;10.90;98.20;;;;;;5091424;28;20491;-42
2022/04/12 02:29:53;;;;;;;10.27;3.60;;;10.90;98.20;;;;;;5092332;28;20020;-40
2022/04/12 02:32:18;;;;;;;4.25;3.10;;;10.90;98.30;;;;;;5092797;28;20020;-36
2022/04/12 02:34:44;;;;;;;5.18;2.90;;;10.90;98.40;;;;;;5094379;28;20085;-38
2022/04/12 02:37:10;;;;;;;5.57;3.47;;;10.90;98.40;;;;;;5094351;28;20063;-36
2022/04/12 02:39:35;;;;;;;5.45;3.42;;;10.90;98.40;;;;;;5093244;28;20024;-37
2022/04/12 02:42:01;;;;;;;4.65;2.88;;;10.80;98.20;;;;;;5095992;28;20031;-37
2022/04/12 02:44:27;;;;;;;3.42;2.60;;;10.90;98.40;;;;;;5095622;28;20047;-41
2022/04/12 02:46:52;;;;;;;6.75;3.53;;;10.90;98.30;;;;;;5096251;28;20064;-37
2022/04/12 02:49:18;;;;;;;9.82;3.50;;;10.90;98.20;;;;;;5095679;28;20080;-42
2022/04/12 02:51:45;;;;;;;5.28;2.95;;;10.90;98.30;;;;;;5093861;28;20024;-34
2022/04/12 02:54:11;;;;;;;7.32;2.67;;;10.90;98.30;;;;;;5094469;28;20032;-37
2022/04/12 02:56:37;;;;;;;12.32;2.90;;;10.80;98.40;;;;;;5095505;28;20480;-37
2022/04/12 02:59:03;;;;;;;6.32;2.75;;;10.90;98.30;;;;;;5093873;28;20024;-37
2022/04/12 03:01:28;;;;;;;8.05;3.20;;;10.80;98.40;;;;;;5094758;28;20142;-38
2022/04/12 03:03:54;;;;;;;8.50;2.97;;;10.80;98.20;;;;;;5095566;28;20028;-33
2022/04/12 03:06:19;;;;;;;6.28;3.33;;;10.80;98.30;;;;;;5095270;28;20536;-47
2022/04/12 03:08:45;;;;;;;8.10;3.17;;;10.80;98.50;;;;;;5093949;28;20027;-39
2022/04/12 03:11:10;;;;;;;7.32;3.22;;;10.70;98.50;;;;;;5093954;28;20111;-38
2022/04/12 03:13:36;;;;;;;11.00;3.38;;;10.80;98.50;;;;;;5093236;28;20525;-44
2022/04/12 03:16:02;;;;;;;6.78;3.30;;;10.80;98.50;;;;;;5095511;28;20035;-37
2022/04/12 03:18:27;;;;;;;6.28;3.38;;;10.80;98.30;;;;;;5095538;28;20036;-45
2022/04/12 03:20:53;;;;;;;7.22;3.03;;;10.80;98.50;;;;;;5093695;28;20028;-38
2022/04/12 03:23:18;;;;;;;5.15;3.13;;;10.70;98.50;;;;;;5094933;28;20081;-37
2022/04/12 03:25:44;;;;;;;7.45;3.10;;;10.70;98.60;;;;;;5095698;28;20016;-38
2022/04/12 03:28:10;;;;;;;6.85;3.00;;;10.70;98.50;;;;;;5093714;28;20028;-37
2022/04/12 03:30:36;;;;;;;5.20;3.53;;;10.70;98.60;;;;;;5080775;28;20020;-37
2022/04/12 03:33:02;;;;;;;6.03;3.00;;;10.70;98.60;;;;;;5094670;28;20028;-38
2022/04/12 03:35:28;;;;;;;6.97;3.38;;;10.70;98.70;;;;;;5094264;28;20028;-37
2022/04/12 03:37:59;;;;;;;4.43;2.97;;;10.70;98.60;;;;;;5094497;28;20024;-38
2022/04/12 03:40:27;;;;;;;10.32;3.15;;;10.60;98.70;;;;;;5094147;28;20027;-37
2022/04/12 03:42:53;;;;;;;8.48;3.67;;;10.70;98.80;;;;;;5093752;28;20504;-36
2022/04/12 03:45:18;;;;;;;5.57;3.20;;;10.60;98.80;;;;;;5094570;28;20103;-38
2022/04/12 03:47:44;;;;;;;4.25;2.60;;;10.70;98.70;;;;;;5093691;28;20073;-38
2022/04/12 03:50:09;;;;;;;3.78;2.75;;;10.60;98.80;;;;;;5093594;28;20044;-37
2022/04/12 03:52:35;;;;;;;5.68;2.83;;;10.60;98.90;;;;;;5092704;28;20510;-37
2022/04/12 03:55:01;;;;;;;5.28;3.17;;;10.60;98.70;;;;;;5094666;28;20012;-38
2022/04/12 03:57:26;;;;;;;4.88;2.95;;;10.70;98.80;;;;;;5094941;28;20540;-43
2022/04/12 03:59:52;;;;;;;8.93;3.22;;;10.60;98.80;;;;;;5092073;28;20403;-49
2022/04/12 04:02:17;;;;;;;6.25;3.53;;;10.70;98.80;;;;;;5091260;28;20077;-38
2022/04/12 04:04:43;;;;;;;4.38;3.03;;;10.70;98.80;;;;;;5094231;28;20515;-38
2022/04/12 04:07:09;;;;;;;6.18;3.58;;;10.70;98.70;;;;;;5093046;28;20119;-38
2022/04/12 04:09:34;;;;;;;7.75;3.20;;;10.70;98.70;;;;;;5092668;28;20062;-37
2022/04/12 04:12:03;;;;;;;6.15;2.92;;;10.70;98.70;;;;;;5093418;28;20036;-35
2022/04/12 04:14:31;;;;;;;6.05;3.10;;;10.70;98.80;;;;;;5093499;28;20020;-37
2022/04/12 04:16:58;;;;;;;4.10;2.60;;;10.70;98.80;;;;;;5093715;28;20020;-37
2022/04/12 04:19:24;;;;;;;7.47;3.25;;;10.70;98.80;;;;;;5094750;28;20020;-38
2022/04/12 04:21:49;;;;;;;6.68;3.22;;;10.80;98.80;;;;;;5092401;28;20047;-38
2022/04/12 04:24:15;;;;;;;8.82;3.10;;;10.80;98.80;;;;;;5093619;28;20392;-38
2022/04/12 04:26:42;;;;;;;6.13;3.58;;;10.80;98.80;;;;;;5094462;28;20077;-38
2022/04/12 04:29:08;;;;;;;4.80;3.00;;;10.80;98.80;;;;;;5092884;28;20020;-38
2022/04/12 04:31:33;;;;;;;7.50;3.72;;;10.90;99.00;;;;;;5092508;28;20153;-38
2022/04/12 04:33:59;;;;;;;7.85;3.25;;;10.80;98.80;;;;;;5092863;28;20028;-38
2022/04/12 04:36:25;;;;;;;6.53;3.30;;;10.90;98.80;;;;;;5093779;28;20519;-38
2022/04/12 04:38:50;;;;;;;7.75;3.10;;;10.80;98.80;;;;;;5092902;28;20652;-37
2022/04/12 04:41:16;;;;;;;7.80;3.03;;;10.80;98.80;;;;;;5094222;28;20024;-40
2022/04/12 04:43:45;;;;;;;4.78;2.75;;;10.80;98.90;;;;;;5092026;28;20034;-37
2022/04/12 04:46:11;;;;;;;7.28;3.40;;;10.80;98.90;;;;;;5080410;28;20525;-35
2022/04/12 04:48:38;;;;;;;6.25;2.97;;;10.70;99.00;;;;;;5093484;28;20059;-36
2022/04/12 04:51:04;;;;;;;6.32;2.90;;;10.70;99.00;;;;;;5087994;28;20035;-37
2022/04/12 04:53:29;;;;;;;5.60;3.63;;;10.70;99.10;;;;;;5093164;28;20028;-38
2022/04/12 04:55:55;;;;;;;12.30;3.65;;;10.70;99.10;;;;;;5092755;28;20028;-39
2022/04/12 04:58:21;;;;;;;7.25;3.22;;;10.70;99.50;;;;;;5093784;28;20020;-36
2022/04/12 05:00:46;;;;;;;6.40;3.38;;;10.60;99.30;;;;;;5092186;28;20080;-37
2022/04/12 05:03:12;;;;;;;7.43;3.85;;;10.60;99.50;;;;;;5091651;28;20047;-37
2022/04/12 05:05:37;;;;;;;4.47;3.60;;;10.70;99.40;;;;;;5092160;28;20028;-38
2022/04/12 05:08:03;;;;;;;9.05;3.70;;;10.70;99.50;;;;;;5093082;28;20017;-36
2022/04/12 05:10:32;;;;;;;9.57;3.67;;;10.60;99.30;;;;;;5091141;28;20035;-38
2022/04/12 05:12:58;;;;;;;6.07;3.53;;;10.60;99.50;;;;;;5092632;28;20073;-38
2022/04/12 05:15:24;;;;;;;7.70;3.50;;;10.60;99.30;;;;;;5093292;28;20028;-37
2022/04/12 05:17:52;;;;;;;9.43;3.55;;;10.50;99.60;;;;;;5093787;28;20038;-38
2022/04/12 05:20:19;;;;;;;12.95;4.47;;;10.50;99.60;;;;;;5092669;28;20057;-37
2022/04/12 05:22:45;;;;;;;7.60;3.65;;;10.50;99.80;;;;;;5093018;28;20044;-38
2022/04/12 05:25:10;;;;;;;10.07;4.00;;;10.40;99.90;;;;;;5093285;28;20520;-38
2022/04/12 05:27:36;;;;;;;12.23;4.13;;;10.30;99.90;;;;;;5092851;28;20059;-39
2022/04/12 05:30:04;;;;;;;9.80;3.92;;;10.30;99.90;;;;;;5091056;28;20073;-32
2022/04/12 05:32:29;;;;;;;8.43;4.00;;;10.30;99.90;;;;;;5079338;28;20094;-38
2022/04/12 05:34:55;;;;;;;4.78;3.25;;;10.20;99.90;;;;;;5091829;28;20111;-37
2022/04/12 05:37:21;;;;;;;6.10;3.58;;;10.30;99.90;;;;;;5090263;28;20028;-37
2022/04/12 05:39:46;;;;;;;9.93;3.30;;;10.20;99.90;;;;;;5091321;28;20495;-38
2022/04/12 05:42:12;;;;;;;10.93;3.92;;;10.20;99.90;;;;;;5092824;28;20027;-38
2022/04/12 05:44:37;;;;;;;7.32;3.97;;;10.20;99.90;;;;;;5091259;28;20081;-38
2022/04/12 05:47:04;;;;;;;6.72;3.65;;;10.20;99.90;;;;;;5092443;28;20024;-38
2022/04/12 05:49:30;;;;;;;5.13;2.97;;;10.20;99.90;;;;;;5093182;28;20024;-38
2022/04/12 05:51:56;;;;;;;9.13;3.58;;;10.20;99.90;;;;;;5093062;28;20020;-40
2022/04/12 05:54:23;;;;;;;7.18;3.28;;;10.30;99.90;;;;;;5092087;28;20039;-36
2022/04/12 05:56:49;;;;;;;4.97;3.47;;;10.30;99.90;;;;;;5092874;28;20103;-34
2022/04/12 05:59:15;;;;;;;7.60;3.50;;;10.30;99.90;;;;;;5091952;28;20514;-38
2022/04/12 06:01:40;;;;;;;10.68;4.30;;;10.40;99.90;;;;;;5091191;28;20044;-38
2022/04/12 06:04:07;;;;;;;7.18;3.10;;;10.50;99.90;;;;;;5088310;28;20480;-38
2022/04/12 06:06:32;;;;;;;5.20;3.63;;;10.60;99.90;;;;;;5106348;28;20024;-38
2022/04/12 06:08:59;;;;;;;15.48;4.85;;;10.70;99.90;;;;;;5092381;28;20403;-39
2022/04/12 06:11:25;;;;;;;9.23;4.03;;;10.80;99.90;;;;;;5093729;28;20024;-39
2022/04/12 06:13:50;;;;;;;5.88;3.55;;;10.80;99.80;;;;;;5095848;28;20472;-38
2022/04/12 06:16:16;;;;;;;5.57;3.42;;;10.90;99.70;;;;;;5096180;28;20055;-36
2022/04/12 06:18:42;;;;;;;7.40;3.67;;;11.00;99.80;;;;;;5094297;28;20047;-38
2022/04/12 06:21:07;;;;;;;12.98;3.80;;;11.10;99.50;;;;;;5096016;28;20044;-37
2022/04/12 06:23:33;;;;;;;9.68;4.00;;;11.10;99.70;;;;;;5095614;28;20146;-38
2022/04/12 06:25:58;;;;;;;6.75;3.50;;;11.10;99.50;;;;;;5091396;28;20469;-37
2022/04/12 06:28:24;;;;;;;10.48;3.95;;;11.20;99.50;;;;;;5092203;28;20028;-35
2022/04/12 06:30:50;;;;;;;7.47;3.80;;;11.30;99.50;;;;;;5094288;28;20027;-37
2022/04/12 06:33:15;;;;;;;8.52;3.38;;;11.30;99.30;;;;;;5095285;28;20476;-36
2022/04/12 06:35:41;;;;;;;10.10;3.50;;;11.40;99.40;;;;;;5095075;28;21669;-38
2022/04/12 06:38:08;;;;;;;13.32;4.43;;;11.40;99.40;;;;;;5095853;28;20027;-37
2022/04/12 06:40:37;;;;;;;8.30;3.28;;;11.50;99.60;;;;;;5094811;28;20020;-35
2022/04/12 06:43:03;;;;;;;7.10;3.97;;;11.60;99.50;;;;;;5094377;28;20470;-38
2022/04/12 06:45:29;;;;;;;7.70;3.83;;;11.80;99.20;;;;;;5095956;28;20020;-39
2022/04/12 06:47:56;;;;;;;7.80;3.53;;;11.80;99.30;;;;;;5095331;28;20020;-42
2022/04/12 06:50:23;;;;;;;8.57;4.53;;;11.90;99.20;;;;;;5094968;28;20024;-38
2022/04/12 06:52:49;;;;;;;9.50;4.35;;;12.00;99.50;;;;;;5094362;28;20555;-36
2022/04/12 06:55:16;;;;;;;10.82;3.35;;;12.10;98.90;;;;;;5092254;28;20383;-38
2022/04/12 06:57:42;;;;;;;5.47;3.63;;;12.20;98.80;;;;;;5089067;28;20027;-39
2022/04/12 07:00:09;;;;;;;7.43;3.63;;;12.30;99.00;;;;;;5094160;28;20384;-39
2022/04/12 07:02:35;;;;;;;5.38;3.40;;;12.30;98.70;;;;;;5092690;28;20040;-37
2022/04/12 07:05:02;;;;;;;7.53;3.92;;;12.40;98.90;;;;;;5088095;28;20086;-37
2022/04/12 07:07:28;;;;;;;7.32;4.05;;;12.40;98.80;;;;;;5094626;28;20020;-39
2022/04/12 07:09:55;;;;;;;9.10;3.88;;;12.40;98.80;;;;;;5097604;28;20039;-36
2022/04/12 07:12:21;;;;;;;9.70;4.07;;;12.50;98.70;;;;;;5099394;28;20076;-38
2022/04/12 07:14:46;;;;;;;7.82;3.67;;;12.60;98.70;;;;;;5100111;28;20509;-36
2022/04/12 07:17:12;;;;;;;7.47;3.67;;;12.80;98.80;;;;;;5111857;28;20080;-38
2022/04/12 07:19:37;;;;;;;9.68;3.95;;;13.00;98.80;;;;;;5102774;28;20483;-38
2022/04/12 07:22:04;;;;;;;5.25;4.15;;;13.20;98.50;;;;;;5094353;28;20044;-38
2022/04/12 07:24:30;;;;;;;11.38;3.75;;;13.40;98.10;;;;;;5092068;28;20027;-38
2022/04/12 07:26:56;;;;;;;8.40;3.38;;;13.40;98.10;;;;;;5094503;28;20047;-38
2022/04/12 07:29:22;;;;;;;7.78;3.90;;;13.40;98.10;;;;;;5095501;28;20024;-39
2022/04/12 07:31:48;;;;;;;6.20;3.72;;;13.50;98.00;;;;;;5086293;28;20081;-39
2022/04/12 07:34:13;;;;;;;22.10;5.72;;;13.50;97.80;;;;;;5105339;28;21218;-38
2022/04/12 07:36:47;;;;;;;9.35;3.55;;;13.60;98.40;;;;;;5090771;28;20028;-38
2022/04/12 07:39:14;;;;;;;10.63;3.53;;;13.70;98.80;;;;;;5094473;28;20032;-37
2022/04/12 07:41:40;;;;;;;9.40;4.07;;;13.80;98.30;;;;;;5090368;28;20371;-44
2022/04/12 07:44:06;;;;;;;8.23;3.95;;;14.00;98.60;;;;;;5092229;28;20264;-44
2022/04/12 07:46:31;;;;;;;7.95;3.92;;;14.10;98.40;;;;;;5095199;28;20062;-37
2022/04/12 07:48:57;;;;;;;14.43;4.47;;;14.30;98.30;;;;;;5095241;28;20387;-38
2022/04/12 07:51:23;;;;;;;11.55;4.00;;;14.50;97.70;;;;;;5094115;28;20345;-38
2022/04/12 07:53:48;;;;;;;7.78;4.05;;;14.70;97.60;;;;;;5095709;28;20058;-37
2022/04/12 07:56:14;;;;;;;8.50;3.70;;;14.80;97.60;;;;;;5094957;28;20024;-38
2022/04/12 07:58:39;;;;;;;5.88;3.65;;;14.80;97.50;;;;;;5094321;28;20066;-38
2022/04/12 08:01:05;;;;;;;6.75;3.60;;;14.90;97.20;;;;;;5094066;28;20055;-38
2022/04/12 08:03:31;;;;;;;6.38;2.95;;;14.80;97.40;;;;;;5094255;28;20024;-38
2022/04/12 08:05:56;;;;;;;5.78;3.60;;;14.90;97.70;;;;;;5094781;28;20031;-36
2022/04/12 08:08:22;;;;;;;6.93;3.47;;;15.00;97.80;;;;;;5091536;28;20028;-37
2022/04/12 08:10:48;;;;;;;9.10;4.28;;;15.10;97.40;;;;;;5090482;28;20499;-38
2022/04/12 08:13:13;;;;;;;7.18;3.65;;;15.20;97.00;;;;;;5094342;28;20033;-38
2022/04/12 08:15:39;;;;;;;6.55;3.53;;;15.30;97.00;;;;;;5094539;28;20028;-38
2022/04/12 08:18:06;;;;;;;11.50;3.88;;;15.30;97.50;;;;;;5092797;28;20463;-38
2022/04/12 08:20:32;;;;;;;5.55;3.83;;;15.40;97.50;;;;;;5094086;28;20146;-39
2022/04/12 08:22:58;;;;;;;8.43;4.50;;;15.50;97.90;;;;;;5092359;28;20127;-41
2022/04/12 08:25:25;;;;;;;8.48;3.50;;;15.60;98.10;;;;;;5090787;28;20025;-39
2022/04/12 08:27:50;;;;;;;8.48;4.00;;;15.80;97.50;;;;;;5092909;28;20026;-37
2022/04/12 08:30:16;;;;;;;6.30;3.97;;;16.00;97.30;;;;;;5089309;28;20028;-37
2022/04/12 08:32:42;;;;;;;6.28;3.53;;;16.00;96.90;;;;;;5098217;28;20039;-38
2022/04/12 08:37:53;;;;;;;6.20;3.30;;;16.00;97.90;;;;;;5098013;28;20116;-38
2022/04/12 08:40:18;;;;;;;8.27;4.00;;;16.00;98.00;;;;;;5096369;28;20096;-37
2022/04/12 08:42:45;;;;;;;6.68;4.30;;;16.10;97.90;;;;;;5094865;28;20422;-39
2022/04/12 08:45:11;;;;;;;5.50;3.53;;;16.20;97.70;;;;;;5095148;28;20031;-36
2022/04/12 08:47:36;;;;;;;6.32;4.10;;;16.30;97.60;;;;;;5090906;28;20032;-38
2022/04/12 08:50:06;;;;;;;7.65;4.35;;;16.30;97.80;;;;;;5098258;28;20112;-38
2022/04/12 08:52:32;;;;;;;6.55;3.75;;;16.40;98.00;;;;;;5094436;28;20024;-33
2022/04/12 08:54:58;;;;;;;7.65;4.28;;;16.60;97.60;;;;;;5088640;28;20463;-34
2022/04/12 08:57:24;;;;;;;6.82;4.32;;;16.80;97.60;;;;;;5093410;28;20086;-39
2022/04/12 08:59:50;;;;;;;8.52;3.92;;;16.80;97.30;;;;;;5094534;28;20611;-39
2022/04/12 09:02:16;;;;;;;9.95;3.78;;;16.80;96.90;;;;;;5090395;28;20063;-38
2022/04/12 09:04:42;;;;;;;6.15;3.92;;;16.90;97.40;;;;;;5091120;28;20559;-37
2022/04/12 09:07:09;;;;;;;7.30;3.55;;;16.80;97.00;;;;;;5089783;28;20046;-37
2022/04/12 09:09:37;;;;;;;12.05;3.72;;;17.00;97.30;;;;;;5091107;28;20148;-39
2022/04/12 09:12:09;;;;;;;11.70;4.35;;;17.10;97.20;;;;;;5088066;28;20055;-38
2022/04/12 09:14:52;;;;;;;7.55;4.50;;;17.10;97.60;;;;;;5090488;28;20395;-38
2022/04/12 09:17:29;;;;;;;8.57;3.75;;;17.20;97.30;;;;;;5083308;28;20016;-35
2022/04/12 09:19:55;;;;;;;5.60;3.47;;;17.40;97.40;;;;;;5091249;28;20036;-37
2022/04/12 09:22:21;;;;;;;7.93;3.58;;;17.60;96.90;;;;;;5092296;28;20509;-39
2022/04/12 09:24:50;;;;;;;9.13;3.63;;;17.70;96.90;;;;;;5091017;28;20028;-37
2022/04/12 09:27:24;;;;;;;3.75;3.05;;;17.90;96.80;;;;;;5094859;28;20048;-39
2022/04/12 09:29:57;;;;;;;7.45;3.95;;;18.10;95.80;;;;;;5093807;28;20032;-39
2022/04/12 09:32:26;;;;;;;6.10;3.60;;;18.20;96.60;;;;;;5105321;28;20380;-36
2022/04/12 09:34:52;;;;;;;7.85;4.18;;;18.30;96.80;;;;;;5088973;28;20111;-37
2022/04/12 09:37:26;;;;;;;7.05;3.67;;;18.50;95.80;;;;;;5085920;28;20408;-38
2022/04/12 09:40:01;;;;;;;4.88;3.55;;;18.50;95.50;;;;;;5091303;28;20552;-36
2022/04/12 09:42:41;;;;;;;4.72;3.38;;;18.50;95.60;;;;;;5092154;28;20032;-38
2022/04/12 09:45:08;;;;;;;7.20;3.65;;;18.60;95.50;;;;;;5089451;28;20522;-42
2022/04/12 09:47:34;;;;;;;5.78;4.20;;;18.50;96.40;;;;;;5090789;28;20039;-37
2022/04/12 09:50:01;;;;;;;6.07;4.22;;;18.60;96.10;;;;;;5089786;28;20081;-39
2022/04/12 09:52:30;;;;;;;5.97;4.57;;;18.60;95.60;;;;;;5091865;28;20062;-39
2022/04/12 09:54:56;;;;;;;7.78;4.22;;;18.60;96.10;;;;;;5090205;28;20111;-39
2022/04/12 09:57:23;;;;;;;7.93;4.20;;;18.80;96.40;;;;;;5090155;28;20067;-38
2022/04/12 09:59:49;;;;;;;7.95;4.05;;;19.10;95.50;;;;;;5092195;28;20476;-38
2022/04/12 10:02:15;;;;;;;6.78;4.03;;;19.20;95.20;;;;;;5072697;28;20086;-39
2022/04/12 10:04:43;;;;;;;8.02;4.40;;;19.30;95.10;;;;;;5082545;28;20392;-38
2022/04/12 10:07:11;;;;;;;6.47;4.63;;;19.20;95.10;;;;;;5083342;28;20483;-39
2022/04/12 10:09:37;;;;;;;5.40;4.00;;;19.10;96.10;;;;;;5092040;28;20020;-39
2022/04/12 10:12:06;;;;;;;9.82;4.72;;;19.30;95.70;;;;;;5089637;28;20089;-39
2022/04/12 10:14:32;;;;;;;6.28;4.47;;;19.40;95.20;;;;;;5091245;28;20035;-47
2022/04/12 10:16:59;;;;;;;7.25;4.53;;;19.60;95.20;;;;;;5087846;28;20024;-39
2022/04/12 10:19:24;;;;;;;5.07;3.93;;;19.70;95.10;;;;;;5092134;28;20055;-39
2022/04/12 10:21:50;;;;;;;7.15;3.45;;;19.70;95.60;;;;;;5091319;28;20040;-40
2022/04/12 10:24:18;;;;;;;6.07;3.95;;;19.80;95.70;;;;;;5091236;28;20031;-35
2022/04/12 10:26:45;;;;;;;6.88;4.28;;;19.90;96.10;;;;;;5090316;28;20475;-37
2022/04/12 10:29:11;;;;;;;5.82;4.35;;;20.20;94.70;;;;;;5101528;28;20036;-40
2022/04/12 10:31:37;;;;;;;7.13;4.65;;;20.20;94.80;;;;;;5085729;28;20492;-40
2022/04/12 10:34:09;;;;;;;5.70;4.20;;;20.10;95.20;;;;;;5073376;28;20085;-39
2022/04/12 10:36:53;;;;;;;5.45;4.28;;;20.00;95.80;;;;;;5082779;28;20468;-38
2022/04/12 10:39:21;;;;;;;6.03;3.85;;;20.30;95.30;;;;;;5089837;28;20503;-40
2022/04/12 10:41:50;;;;;;;8.40;4.78;;;20.40;94.80;;;;;;5090100;28;20028;-41
2022/04/12 10:44:19;;;;;;;4.85;3.70;;;20.50;94.20;;;;;;5088689;28;20032;-37
2022/04/12 10:46:47;;;;;;;6.63;4.28;;;20.40;94.60;;;;;;5086167;28;20028;-38
2022/04/12 10:49:16;;;;;;;6.13;4.10;;;20.40;94.80;;;;;;5087963;28;20090;-40
2022/04/12 10:51:42;;;;;;;4.75;3.60;;;20.30;94.90;;;;;;5084223;28;20032;-40
2022/04/12 10:54:30;;;;;;;5.53;3.85;;;20.20;95.50;;;;;;5092109;28;20023;-40
2022/04/12 10:57:22;;;;;;;10.88;4.90;;;20.00;95.20;;;;;;5088095;28;20378;-40
2022/04/12 11:00:16;;;;;;;7.32;4.30;;;19.70;95.60;;;;;;5095576;28;20032;-39
2022/04/12 11:02:57;;;;;;;9.18;4.43;;;19.50;95.80;;;;;;5089038;28;20105;-40
2022/04/12 11:05:55;;;;;;;12.52;3.95;;;19.40;95.70;;;;;;5095131;28;20028;-40
2022/04/12 11:08:21;;;;;;;8.57;4.93;;;19.30;95.80;;;;;;5059896;28;20060;-40
2022/04/12 11:10:54;;;;;;;7.35;3.80;;;19.40;96.00;;;;;;5094970;28;20532;-41
2022/04/12 11:13:21;;;;;;;5.95;3.75;;;19.40;95.90;;;;;;5093380;28;20032;-44
2022/04/12 11:15:59;;;;;;;8.05;4.70;;;19.40;96.00;;;;;;5094413;28;20021;-41
2022/04/12 11:18:54;;;;;;;5.63;4.00;;;19.30;96.20;;;;;;5091112;28;20498;-39
2022/04/12 11:21:22;;;;;;;8.18;4.28;;;19.30;96.20;;;;;;5089787;28;20024;-38
2022/04/12 11:23:52;;;;;;;11.57;4.90;;;19.50;96.30;;;;;;5095092;28;20024;-40
2022/04/12 11:26:37;;;;;;;8.70;3.70;;;19.70;96.30;;;;;;5098123;28;20024;-44
2022/04/12 11:29:11;;;;;;;7.90;4.80;;;19.90;95.50;;;;;;5080497;28;20028;-40
2022/04/12 11:31:44;;;;;;;8.48;4.78;;;20.20;95.40;;;;;;5092078;28;20028;-40
2022/04/12 11:34:11;;;;;;;6.95;4.13;;;20.20;95.50;;;;;;5093154;28;20511;-40
2022/04/12 11:36:38;;;;;;;6.57;4.68;;;20.20;95.10;;;;;;5093593;28;20032;-44
2022/04/12 11:39:05;;;;;;;9.25;4.03;;;20.10;95.10;;;;;;5093453;28;20028;-40
2022/04/12 11:41:31;;;;;;;8.57;4.45;;;19.90;95.50;;;;;;5086712;28;20067;-42
2022/04/12 11:44:01;;;;;;;9.13;3.90;;;19.90;95.90;;;;;;5107958;28;20085;-39
2022/04/12 11:46:32;;;;;;;8.45;4.90;;;19.90;95.40;;;;;;5093009;28;20067;-39
2022/04/12 11:49:14;;;;;;;5.85;4.32;;;19.80;95.60;;;;;;5094775;28;20020;-40
2022/04/12 11:51:43;;;;;;;10.93;4.88;;;19.70;95.90;;;;;;5093417;28;20028;-39
2022/04/12 11:54:24;;;;;;;11.07;6.03;;;19.80;96.20;;;;;;5075042;28;20116;-40
2022/04/12 11:57:03;;;;;;;13.63;9.70;;;19.80;96.10;;;;;;5094000;28;20043;-38
2022/04/12 11:59:31;;;;;;;12.80;8.70;;;19.90;95.50;;;;;;5093167;28;20047;-38
2022/04/12 12:01:59;;;;;;;15.52;8.35;;;20.10;95.50;;;;;;5093701;28;20468;-34
2022/04/12 12:04:29;;;;;;;14.82;8.18;;;20.30;95.00;;;;;;5091929;28;20024;-39
2022/04/12 12:07:07;;;;;;;10.30;4.90;;;20.40;95.20;;;;;;5094231;28;20057;-39
2022/04/12 12:09:36;;;;;;;8.40;4.35;;;20.70;94.90;;;;;;5094646;28;20448;-38
2022/04/12 12:12:06;;;;;;;7.65;3.30;;;21.00;94.50;;;;;;5094500;28;20032;-38
2022/04/12 12:14:32;;;;;;;6.60;4.15;;;21.00;95.50;;;;;;5094785;28;20400;-39
2022/04/12 12:17:09;;;;;;;6.55;3.70;;;21.20;94.40;;;;;;5092703;28;20118;-48
2022/04/12 12:19:38;;;;;;;9.75;3.58;;;21.20;94.40;;;;;;5074385;28;20112;-44
2022/04/12 12:22:10;;;;;;;10.35;4.20;;;21.10;94.40;;;;;;5097626;28;20478;-41
2022/04/12 12:24:55;;;;;;;9.18;5.15;;;21.10;94.50;;;;;;5094449;28;20593;-51
2022/04/12 12:27:30;;;;;;;8.77;5.25;;;21.00;94.60;;;;;;5092355;28;20504;-39
2022/04/12 12:30:09;;;;;;;10.73;4.40;;;20.90;94.80;;;;;;5094335;28;20036;-39
2022/04/12 12:32:37;;;;;;;9.40;4.30;;;21.20;95.20;;;;;;5093669;28;20048;-39
2022/04/12 12:35:15;;;;;;;;;;;21.30;94.70;;;;;;5094913;28;20499;-39
2022/04/12 12:37:42;;;;;;;6.85;3.25;;;21.50;95.30;;;;;;5093881;28;19978;-39
2022/04/12 12:40:20;;;;;;;7.60;4.20;;;21.70;95.30;;;;;;5094180;28;20054;-39
2022/04/12 12:42:47;;;;;;;6.47;4.18;;;21.90;94.20;;;;;;5097323;28;20024;-38
2022/04/12 12:45:18;;;;;;;8.23;4.40;;;21.80;94.10;;;;;;5094230;28;20092;-40
2022/04/12 12:47:46;;;;;;;10.85;3.78;;;21.80;94.50;;;;;;5093521;28;20058;-40
2022/04/12 12:50:14;;;;;;;6.00;4.47;;;21.80;94.40;;;;;;5093888;28;20038;-39
2022/04/12 12:52:40;;;;;;;;;;;21.90;93.80;;;;;;5093209;28;20435;-39